sensor_id;sensor_type;location;lat;lon;timestamp;P1;durP1;ratioP1;P2;durP2;ratioP2
12912;SDS011;6524;51.368;11.984;2022-11-15T00:02:55;17.50;;;13.30;;
12912;SDS011;6524;51.368;11.984;2022-11-15T00:07:56;16.20;;;11.93;;
12912;SDS011;6524;51.368;11.984;2022-11-15T00:12:57;15.83;;;12.13;;
12912;SDS011;6524;51.368;11.984;2022-11-15T00:17:57;18.50;;;11.80;;
12912;SDS011;6524;51.368;11.984;2022-11-15T00:22:57;14.87;;;11.93;;
12912;SDS011;6524;51.368;11.984;2022-11-15T00:27:58;16.20;;;12.00;;
12912;SDS011;6524;51.368;11.984;2022-11-15T00:33:03;18.53;;;12.57;;
12912;SDS011;6524;51.368;11.984;2022-11-15T00:38:06;18.10;;;13.27;;
12912;SDS011;6524;51.368;11.984;2022-11-15T00:43:06;18.13;;;13.10;;
12912;SDS011;6524;51.368;11.984;2022-11-15T00:48:07;17.20;;;12.67;;
12912;SDS011;6524;51.368;11.984;2022-11-15T00:53:07;18.23;;;12.77;;
12912;SDS011;6524;51.368;11.984;2022-11-15T00:58:07;18.57;;;13.17;;
12912;SDS011;6524;51.368;11.984;2022-11-15T05:04:45;14.20;;;10.33;;
12912;SDS011;6524;51.368;11.984;2022-11-15T05:09:46;14.53;;;10.20;;
12912;SDS011;6524;51.368;11.984;2022-11-15T05:14:46;14.32;;;10.13;;
12912;SDS011;6524;51.368;11.984;2022-11-15T05:19:46;12.23;;;9.82;;
12912;SDS011;6524;51.368;11.984;2022-11-15T05:24:47;12.90;;;9.45;;
12912;SDS011;6524;51.368;11.984;2022-11-15T05:29:47;13.20;;;10.70;;
12912;SDS011;6524;51.368;11.984;2022-11-15T05:34:48;13.27;;;9.83;;
12912;SDS011;6524;51.368;11.984;2022-11-15T05:39:48;15.43;;;10.52;;
12912;SDS011;6524;51.368;11.984;2022-11-15T05:44:49;14.55;;;10.43;;
12912;SDS011;6524;51.368;11.984;2022-11-15T05:49:49;16.15;;;10.45;;
12912;SDS011;6524;51.368;11.984;2022-11-15T05:54:51;16.50;;;10.30;;
12912;SDS011;6524;51.368;11.984;2022-11-15T05:59:53;16.70;;;10.52;;
12912;SDS011;6524;51.368;11.984;2022-11-15T06:04:54;14.52;;;9.95;;
12912;SDS011;6524;51.368;11.984;2022-11-15T06:09:54;14.18;;;9.98;;
12912;SDS011;6524;51.368;11.984;2022-11-15T06:14:55;13.75;;;9.65;;
12912;SDS011;6524;51.368;11.984;2022-11-15T06:19:55;13.53;;;9.53;;
12912;SDS011;6524;51.368;11.984;2022-11-15T06:24:55;13.30;;;9.30;;
12912;SDS011;6524;51.368;11.984;2022-11-15T06:29:56;16.15;;;10.88;;
12912;SDS011;6524;51.368;11.984;2022-11-15T06:34:56;14.77;;;11.10;;
12912;SDS011;6524;51.368;11.984;2022-11-15T06:39:56;15.70;;;11.05;;
12912;SDS011;6524;51.368;11.984;2022-11-15T06:44:56;15.02;;;10.30;;
12912;SDS011;6524;51.368;11.984;2022-11-15T06:49:57;16.60;;;10.27;;
12912;SDS011;6524;51.368;11.984;2022-11-15T06:54:57;12.35;;;9.27;;
12912;SDS011;6524;51.368;11.984;2022-11-15T06:59:57;13.50;;;9.75;;
12912;SDS011;6524;51.368;11.984;2022-11-15T07:04:58;13.80;;;9.32;;
12912;SDS011;6524;51.368;11.984;2022-11-15T07:09:58;12.23;;;8.90;;
12912;SDS011;6524;51.368;11.984;2022-11-15T07:14:59;12.77;;;9.00;;
12912;SDS011;6524;51.368;11.984;2022-11-15T07:19:59;13.07;;;9.43;;
12912;SDS011;6524;51.368;11.984;2022-11-15T07:24:59;11.17;;;8.77;;
12912;SDS011;6524;51.368;11.984;2022-11-15T07:30:00;11.48;;;8.98;;
12912;SDS011;6524;51.368;11.984;2022-11-15T07:35:00;11.82;;;8.98;;
12912;SDS011;6524;51.368;11.984;2022-11-15T07:40:01;11.45;;;8.45;;
12912;SDS011;6524;51.368;11.984;2022-11-15T07:45:01;10.73;;;8.35;;
12912;SDS011;6524;51.368;11.984;2022-11-15T07:50:02;9.57;;;8.15;;
12912;SDS011;6524;51.368;11.984;2022-11-15T07:55:02;10.55;;;8.35;;
12912;SDS011;6524;51.368;11.984;2022-11-15T08:00:06;11.20;;;7.93;;
12912;SDS011;6524;51.368;11.984;2022-11-15T08:05:07;8.45;;;7.55;;
12912;SDS011;6524;51.368;11.984;2022-11-15T08:10:07;10.95;;;7.90;;
12912;SDS011;6524;51.368;11.984;2022-11-15T08:15:09;9.30;;;7.90;;
12912;SDS011;6524;51.368;11.984;2022-11-15T08:20:10;10.40;;;8.45;;
12912;SDS011;6524;51.368;11.984;2022-11-15T08:25:10;13.52;;;9.30;;
12912;SDS011;6524;51.368;11.984;2022-11-15T08:30:11;13.57;;;10.43;;
12912;SDS011;6524;51.368;11.984;2022-11-15T08:35:11;12.40;;;10.18;;
12912;SDS011;6524;51.368;11.984;2022-11-15T08:40:12;12.55;;;9.35;;
12912;SDS011;6524;51.368;11.984;2022-11-15T08:45:13;12.63;;;10.40;;
12912;SDS011;6524;51.368;11.984;2022-11-15T08:50:15;11.40;;;9.30;;
12912;SDS011;6524;51.368;11.984;2022-11-15T08:55:15;11.82;;;9.98;;
12912;SDS011;6524;51.368;11.984;2022-11-15T09:00:16;11.95;;;10.30;;
12912;SDS011;6524;51.368;11.984;2022-11-15T09:05:16;12.27;;;9.45;;
12912;SDS011;6524;51.368;11.984;2022-11-15T09:10:18;11.43;;;9.48;;
12912;SDS011;6524;51.368;11.984;2022-11-15T09:15:18;11.95;;;9.45;;
12912;SDS011;6524;51.368;11.984;2022-11-15T09:20:19;9.57;;;8.57;;
12912;SDS011;6524;51.368;11.984;2022-11-15T09:25:20;11.35;;;8.48;;
12912;SDS011;6524;51.368;11.984;2022-11-15T09:30:20;12.45;;;9.63;;
12912;SDS011;6524;51.368;11.984;2022-11-15T09:35:20;12.05;;;9.23;;
12912;SDS011;6524;51.368;11.984;2022-11-15T09:40:21;10.10;;;9.02;;
12912;SDS011;6524;51.368;11.984;2022-11-15T09:45:31;9.23;;;8.35;;
12912;SDS011;6524;51.368;11.984;2022-11-15T09:50:52;7.47;;;6.78;;
12912;SDS011;6524;51.368;11.984;2022-11-15T09:56:00;7.85;;;7.10;;
12912;SDS011;6524;51.368;11.984;2022-11-15T10:01:04;7.07;;;6.40;;
12912;SDS011;6524;51.368;11.984;2022-11-15T10:06:10;7.25;;;6.55;;
12912;SDS011;6524;51.368;11.984;2022-11-15T10:11:22;6.80;;;6.13;;
12912;SDS011;6524;51.368;11.984;2022-11-15T10:27:10;6.50;;;5.90;;
12912;SDS011;6524;51.368;11.984;2022-11-15T10:32:13;6.65;;;5.90;;
12912;SDS011;6524;51.368;11.984;2022-11-15T10:37:26;8.43;;;5.50;;
12912;SDS011;6524;51.368;11.984;2022-11-15T10:42:31;6.13;;;5.63;;
12912;SDS011;6524;51.368;11.984;2022-11-15T10:47:31;6.00;;;5.40;;
12912;SDS011;6524;51.368;11.984;2022-11-15T10:52:34;6.05;;;5.13;;
12912;SDS011;6524;51.368;11.984;2022-11-15T10:57:36;6.05;;;5.50;;
12912;SDS011;6524;51.368;11.984;2022-11-15T11:02:39;8.25;;;5.82;;
12912;SDS011;6524;51.368;11.984;2022-11-15T11:07:45;6.18;;;5.50;;
12912;SDS011;6524;51.368;11.984;2022-11-15T11:13:11;5.55;;;5.00;;
12912;SDS011;6524;51.368;11.984;2022-11-15T11:18:25;5.22;;;4.70;;
12912;SDS011;6524;51.368;11.984;2022-11-15T11:33:56;6.57;;;5.32;;
12912;SDS011;6524;51.368;11.984;2022-11-15T11:39:23;6.13;;;5.40;;
12912;SDS011;6524;51.368;11.984;2022-11-15T11:44:44;9.77;;;5.93;;
12912;SDS011;6524;51.368;11.984;2022-11-15T11:49:57;6.75;;;5.57;;
12912;SDS011;6524;51.368;11.984;2022-11-15T12:00:42;6.47;;;5.20;;
12912;SDS011;6524;51.368;11.984;2022-11-15T12:05:49;6.68;;;4.28;;
12912;SDS011;6524;51.368;11.984;2022-11-15T12:11:04;4.85;;;4.30;;
12912;SDS011;6524;51.368;11.984;2022-11-15T12:32:33;4.05;;;3.63;;
12912;SDS011;6524;51.368;11.984;2022-11-15T12:42:42;4.65;;;3.70;;
12912;SDS011;6524;51.368;11.984;2022-11-15T12:58:28;3.72;;;3.42;;
12912;SDS011;6524;51.368;11.984;2022-11-15T13:04:07;4.78;;;3.63;;
12912;SDS011;6524;51.368;11.984;2022-11-15T13:09:52;5.38;;;4.60;;
12912;SDS011;6524;51.368;11.984;2022-11-15T13:14:46;3.78;;;3.47;;
12912;SDS011;6524;51.368;11.984;2022-11-15T13:30:56;4.93;;;3.13;;
12912;SDS011;6524;51.368;11.984;2022-11-15T13:35:58;4.55;;;3.88;;
12912;SDS011;6524;51.368;11.984;2022-11-15T13:41:24;5.05;;;4.32;;
12912;SDS011;6524;51.368;11.984;2022-11-15T13:46:35;5.68;;;4.90;;
12912;SDS011;6524;51.368;11.984;2022-11-15T13:56:45;5.28;;;4.57;;
12912;SDS011;6524;51.368;11.984;2022-11-15T14:01:49;4.63;;;3.80;;
12912;SDS011;6524;51.368;11.984;2022-11-15T14:06:52;6.00;;;4.60;;
12912;SDS011;6524;51.368;11.984;2022-11-15T14:11:55;4.60;;;3.88;;
12912;SDS011;6524;51.368;11.984;2022-11-15T14:16:57;6.18;;;4.47;;
12912;SDS011;6524;51.368;11.984;2022-11-15T14:32:29;6.13;;;5.00;;
12912;SDS011;6524;51.368;11.984;2022-11-15T14:37:39;7.35;;;6.25;;
12912;SDS011;6524;51.368;11.984;2022-11-15T14:42:40;6.97;;;5.68;;
12912;SDS011;6524;51.368;11.984;2022-11-15T14:47:41;5.90;;;4.55;;
12912;SDS011;6524;51.368;11.984;2022-11-15T14:52:42;5.03;;;4.53;;
12912;SDS011;6524;51.368;11.984;2022-11-15T14:57:43;6.70;;;4.10;;
12912;SDS011;6524;51.368;11.984;2022-11-15T15:02:44;6.28;;;4.40;;
12912;SDS011;6524;51.368;11.984;2022-11-15T15:07:45;5.75;;;5.00;;
12912;SDS011;6524;51.368;11.984;2022-11-15T15:12:46;11.98;;;7.60;;
12912;SDS011;6524;51.368;11.984;2022-11-15T15:17:46;6.97;;;5.25;;
12912;SDS011;6524;51.368;11.984;2022-11-15T15:22:47;7.10;;;5.72;;
12912;SDS011;6524;51.368;11.984;2022-11-15T15:27:47;7.25;;;5.30;;
12912;SDS011;6524;51.368;11.984;2022-11-15T15:32:48;8.18;;;6.43;;
12912;SDS011;6524;51.368;11.984;2022-11-15T15:37:48;6.55;;;5.80;;
12912;SDS011;6524;51.368;11.984;2022-11-15T15:42:50;5.95;;;4.95;;
12912;SDS011;6524;51.368;11.984;2022-11-15T15:47:51;8.30;;;5.60;;
12912;SDS011;6524;51.368;11.984;2022-11-15T15:52:53;6.82;;;4.88;;
12912;SDS011;6524;51.368;11.984;2022-11-15T15:57:55;6.28;;;5.43;;
12912;SDS011;6524;51.368;11.984;2022-11-15T16:02:56;7.22;;;5.90;;
12912;SDS011;6524;51.368;11.984;2022-11-15T16:07:56;8.55;;;6.10;;
12912;SDS011;6524;51.368;11.984;2022-11-15T16:12:57;9.82;;;6.65;;
12912;SDS011;6524;51.368;11.984;2022-11-15T16:17:59;10.27;;;6.72;;
12912;SDS011;6524;51.368;11.984;2022-11-15T16:23:00;8.43;;;6.57;;
12912;SDS011;6524;51.368;11.984;2022-11-15T16:28:02;9.82;;;6.47;;
12912;SDS011;6524;51.368;11.984;2022-11-15T16:33:02;9.63;;;6.47;;
12912;SDS011;6524;51.368;11.984;2022-11-15T16:38:02;10.25;;;7.85;;
12912;SDS011;6524;51.368;11.984;2022-11-15T16:43:03;13.43;;;9.27;;
12912;SDS011;6524;51.368;11.984;2022-11-15T16:48:05;11.25;;;9.38;;
12912;SDS011;6524;51.368;11.984;2022-11-15T16:53:05;23.45;;;18.30;;
12912;SDS011;6524;51.368;11.984;2022-11-15T16:58:07;13.50;;;11.88;;
12912;SDS011;6524;51.368;11.984;2022-11-15T17:03:08;9.15;;;7.75;;
12912;SDS011;6524;51.368;11.984;2022-11-15T17:08:09;11.55;;;8.45;;
12912;SDS011;6524;51.368;11.984;2022-11-15T17:13:12;11.00;;;8.35;;
12912;SDS011;6524;51.368;11.984;2022-11-15T17:18:13;13.65;;;10.48;;
12912;SDS011;6524;51.368;11.984;2022-11-15T17:23:14;9.82;;;8.70;;
12912;SDS011;6524;51.368;11.984;2022-11-15T17:28:15;8.50;;;7.60;;
12912;SDS011;6524;51.368;11.984;2022-11-15T17:33:15;9.85;;;8.85;;
12912;SDS011;6524;51.368;11.984;2022-11-15T17:38:15;9.87;;;8.10;;
12912;SDS011;6524;51.368;11.984;2022-11-15T17:43:16;12.77;;;11.47;;
12912;SDS011;6524;51.368;11.984;2022-11-15T17:48:16;10.65;;;9.40;;
12912;SDS011;6524;51.368;11.984;2022-11-15T17:53:16;11.65;;;9.50;;
12912;SDS011;6524;51.368;11.984;2022-11-15T17:58:17;11.05;;;8.73;;
12912;SDS011;6524;51.368;11.984;2022-11-15T18:03:17;15.15;;;10.40;;
12912;SDS011;6524;51.368;11.984;2022-11-15T18:08:18;11.32;;;10.23;;
12912;SDS011;6524;51.368;11.984;2022-11-15T18:13:19;14.77;;;10.40;;
12912;SDS011;6524;51.368;11.984;2022-11-15T18:18:20;13.33;;;9.53;;
12912;SDS011;6524;51.368;11.984;2022-11-15T18:23:20;13.00;;;9.35;;
12912;SDS011;6524;51.368;11.984;2022-11-15T18:28:21;11.00;;;9.47;;
12912;SDS011;6524;51.368;11.984;2022-11-15T18:33:21;12.98;;;10.13;;
12912;SDS011;6524;51.368;11.984;2022-11-15T18:38:21;15.52;;;11.95;;
12912;SDS011;6524;51.368;11.984;2022-11-15T18:43:22;15.45;;;11.60;;
12912;SDS011;6524;51.368;11.984;2022-11-15T18:48:23;15.30;;;12.20;;
12912;SDS011;6524;51.368;11.984;2022-11-15T18:53:23;13.98;;;11.27;;
12912;SDS011;6524;51.368;11.984;2022-11-15T18:58:23;14.35;;;11.45;;
12912;SDS011;6524;51.368;11.984;2022-11-15T19:03:24;14.40;;;11.73;;
12912;SDS011;6524;51.368;11.984;2022-11-15T19:08:24;15.40;;;12.23;;
12912;SDS011;6524;51.368;11.984;2022-11-15T19:13:24;14.98;;;12.23;;
12912;SDS011;6524;51.368;11.984;2022-11-15T19:18:25;15.70;;;11.10;;
12912;SDS011;6524;51.368;11.984;2022-11-15T19:23:26;15.80;;;10.48;;
12912;SDS011;6524;51.368;11.984;2022-11-15T19:28:26;12.33;;;10.23;;
12912;SDS011;6524;51.368;11.984;2022-11-15T19:33:27;13.50;;;10.00;;
12912;SDS011;6524;51.368;11.984;2022-11-15T19:38:31;13.57;;;9.93;;
12912;SDS011;6524;51.368;11.984;2022-11-15T19:43:33;12.18;;;10.30;;
12912;SDS011;6524;51.368;11.984;2022-11-15T19:48:33;11.85;;;9.68;;
12912;SDS011;6524;51.368;11.984;2022-11-15T19:53:34;11.60;;;9.23;;
12912;SDS011;6524;51.368;11.984;2022-11-15T19:58:34;13.82;;;10.32;;
12912;SDS011;6524;51.368;11.984;2022-11-15T20:03:35;12.88;;;10.05;;
12912;SDS011;6524;51.368;11.984;2022-11-15T20:08:35;11.10;;;9.27;;
12912;SDS011;6524;51.368;11.984;2022-11-15T20:13:36;12.50;;;9.95;;
12912;SDS011;6524;51.368;11.984;2022-11-15T20:18:37;13.68;;;10.60;;
12912;SDS011;6524;51.368;11.984;2022-11-15T20:23:37;14.55;;;10.25;;
12912;SDS011;6524;51.368;11.984;2022-11-15T20:28:38;14.00;;;10.82;;
12912;SDS011;6524;51.368;11.984;2022-11-15T20:33:39;14.82;;;10.63;;
12912;SDS011;6524;51.368;11.984;2022-11-15T20:38:39;14.75;;;12.30;;
12912;SDS011;6524;51.368;11.984;2022-11-15T20:43:40;16.67;;;11.85;;
12912;SDS011;6524;51.368;11.984;2022-11-15T20:48:42;14.25;;;11.23;;
12912;SDS011;6524;51.368;11.984;2022-11-15T20:53:43;14.07;;;11.57;;
12912;SDS011;6524;51.368;11.984;2022-11-15T20:58:44;15.13;;;11.70;;
12912;SDS011;6524;51.368;11.984;2022-11-15T21:03:45;14.13;;;10.75;;
12912;SDS011;6524;51.368;11.984;2022-11-15T21:08:49;16.15;;;11.77;;
12912;SDS011;6524;51.368;11.984;2022-11-15T21:14:09;16.17;;;13.07;;
12912;SDS011;6524;51.368;11.984;2022-11-15T21:19:10;15.68;;;12.63;;
12912;SDS011;6524;51.368;11.984;2022-11-15T21:24:11;15.98;;;12.25;;
12912;SDS011;6524;51.368;11.984;2022-11-15T21:29:11;14.75;;;13.20;;
12912;SDS011;6524;51.368;11.984;2022-11-15T21:34:16;14.45;;;11.27;;
12912;SDS011;6524;51.368;11.984;2022-11-15T21:39:17;14.00;;;10.88;;
12912;SDS011;6524;51.368;11.984;2022-11-15T21:44:17;13.93;;;11.63;;
12912;SDS011;6524;51.368;11.984;2022-11-15T21:49:18;15.80;;;12.15;;
12912;SDS011;6524;51.368;11.984;2022-11-15T21:54:19;13.93;;;12.02;;
12912;SDS011;6524;51.368;11.984;2022-11-15T21:59:20;14.15;;;11.75;;
12912;SDS011;6524;51.368;11.984;2022-11-15T22:04:20;13.35;;;11.35;;
12912;SDS011;6524;51.368;11.984;2022-11-15T22:09:22;15.30;;;11.95;;
12912;SDS011;6524;51.368;11.984;2022-11-15T22:14:23;13.15;;;11.50;;
12912;SDS011;6524;51.368;11.984;2022-11-15T22:19:23;14.65;;;11.93;;
12912;SDS011;6524;51.368;11.984;2022-11-15T22:24:23;13.65;;;10.98;;
12912;SDS011;6524;51.368;11.984;2022-11-15T22:29:24;11.90;;;10.23;;
12912;SDS011;6524;51.368;11.984;2022-11-15T22:34:24;14.00;;;10.87;;
12912;SDS011;6524;51.368;11.984;2022-11-15T22:39:24;17.55;;;10.70;;
12912;SDS011;6524;51.368;11.984;2022-11-15T22:44:25;13.43;;;11.05;;
12912;SDS011;6524;51.368;11.984;2022-11-15T22:49:25;14.60;;;11.50;;
12912;SDS011;6524;51.368;11.984;2022-11-15T22:54:25;12.17;;;10.30;;
12912;SDS011;6524;51.368;11.984;2022-11-15T22:59:26;15.20;;;10.07;;
12912;SDS011;6524;51.368;11.984;2022-11-15T23:04:26;16.42;;;11.07;;
12912;SDS011;6524;51.368;11.984;2022-11-15T23:09:27;12.63;;;10.02;;
12912;SDS011;6524;51.368;11.984;2022-11-15T23:14:27;12.00;;;9.75;;
12912;SDS011;6524;51.368;11.984;2022-11-15T23:19:27;13.15;;;10.82;;
12912;SDS011;6524;51.368;11.984;2022-11-15T23:24:28;12.52;;;9.93;;
12912;SDS011;6524;51.368;11.984;2022-11-15T23:29:29;13.65;;;9.02;;
12912;SDS011;6524;51.368;11.984;2022-11-15T23:34:30;14.05;;;10.07;;
12912;SDS011;6524;51.368;11.984;2022-11-15T23:39:31;12.43;;;9.52;;
12912;SDS011;6524;51.368;11.984;2022-11-15T23:44:32;13.45;;;10.05;;
